Weather observations for the past three days for
Tinker Air Force Base
Imperial (Metric)
Date Time (cdt) Wind (mph) Vis. (mi.) Weather Sky Cond. Temperature (ºF) Relative Humidity Wind Chill (°F) Heat Index (°F) Pressure Precipitation (in)
Air Dwpt 6 hour altimeter (in) sea level (mb) 1 hr 3 hr 6 hr
Max. Min.
04 16:55 SW 22 G 28 10.00 A Few Clouds and Breezy FEW140 FEW170 79.7 59.9 51% 81 29.63 1002.4
04 15:55 S 29 G 36 10.00 A Few Clouds and Windy FEW170 79.7 58.3 48% 80 29.65 1003.1
04 14:55 SW 28 10.00 A Few Clouds and Windy FEW170 FEW200 80.1 56.8 45% 80 29.68 1004.1
04 13:55 S 25 G 30 10.00 Mostly Cloudy and Breezy FEW120 SCT140 BKN160 BKN200 79.3 56.7 46% 80 29.7 1004.8
04 12:55 S 23 G 32 10.00 Partly Cloudy and Breezy FEW110 SCT170 SCT210 78.1 54.3 78.1 59.4 44% 79 29.73 1005.8
04 11:55 SW 23 10.00 Partly Cloudy and Breezy FEW130 SCT200 76.1 53.2 45% 78 29.74 1006.2
04 10:55 SW 24 G 31 10.00 A Few Clouds and Breezy FEW150 FEW180 74.3 52.7 47% 29.76 1006.9
04 08:55 SW 23 G 28 10.00 Fair and Breezy CLR 66.9 48.7 52% 29.78 1007.6
04 07:55 S 17 10.00 Fair CLR 62.6 48 59% 29.79 1008.0
04 06:55 S 14 10.00 Fair CLR 59.7 47.1 66 59.2 63% 29.79 1008.0
04 05:55 S 13 10.00 Fair CLR 59.9 46 60% 29.8 1008.2
04 04:55 S 14 10.00 Fair CLR 61.2 45.3 56% 29.81 1008.6
04 03:55 S 14 10.00 Fair CLR 61.2 44.8 55% 29.81 1008.6
04 02:55 S 14 10.00 Fair CLR 61.7 43.9 52% 29.83 1009.2
04 01:55 S 14 10.00 Fair CLR 64 43.3 47% 29.85 1009.8
04 00:55 S 14 10.00 Fair CLR 66.2 43 79.7 66.2 43% 29.87 1010.5
03 23:55 SW 16 10.00 Fair CLR 67.3 42.8 41% 29.88 1010.9
03 22:55 S 16 10.00 Fair CLR 68.7 42.8 39% 29.9 1011.6
03 21:55 S 14 10.00 Fair CLR 69.8 41.5 36% 29.89 1011.4
03 20:55 S 15 10.00 Fair CLR 72.5 41 32% 29.88 1011.1
03 19:55 SW 17 10.00 Fair CLR 75.7 39.4 27% 77 29.89 1011.6
03 18:55 SW 22 10.00 Fair and Breezy CLR 80.1 38.8 84.6 80.1 23% 79 29.89 1011.6
03 17:55 SW 24 G 30 10.00 Fair and Breezy CLR 81.9 36.9 20% 80 29.9 1011.8
03 16:55 SW 22 G 28 10.00 Fair and Breezy CLR 83.1 40.3 22% 81 29.91 1012.2
03 15:55 SW 23 G 30 10.00 Fair and Breezy CLR 83.1 37.9 20% 81 29.94 1013.2
03 14:55 SW 18 G 25 10.00 Fair CLR 82.9 39 21% 81 29.97 1014.2
03 13:55 W 24 G 30 10.00 A Few Clouds and Breezy FEW190 83.3 30.7 15% 81 29.99 1014.8
03 12:55 W 14 10.00 A Few Clouds FEW190 81.5 43.3 82 53.2 26% 80 30.02 1015.8
03 11:55 SW 16 10.00 A Few Clouds FEW170 78.3 46 32% 78 30.04 1016.6
03 10:55 SW 14 10.00 A Few Clouds FEW190 73.6 45 36% 30.05 1017.1
03 09:55 SW 10 10.00 Fair CLR 68 46.4 46% 30.05 1017.2
03 08:55 SW 10 10.00 Fair CLR 61.9 47.8 60% 30.05 1017.2
03 07:55 S 10 10.00 Fair CLR 56.3 46.9 71% 30.05 1017.2
03 06:55 S 13 10.00 Fair CLR 53.4 47.5 55.8 52.2 80% 30.03 1016.5
03 05:55 SE 10 10.00 Fair CLR 52.5 45.5 77% 30.03 1016.5
03 04:55 SE 8 10.00 Fair CLR 53.6 44.1 70% 30.05 1017.1
03 03:55 SE 8 10.00 Fair CLR 53.6 43.3 68% 30.07 1017.8
03 02:55 SE 8 10.00 Fair CLR 54.5 43.7 67% 30.08 1018.1
03 01:55 SE 8 10.00 Fair CLR 55.4 43.3 64% 30.1 1018.8
03 00:55 SE 7 10.00 Fair CLR 55.2 42.4 72.9 54.9 62% 30.11 1019.3
02 23:55 E 8 10.00 Fair CLR 55.8 43 62% 30.1 1018.9
02 22:55 E 8 10.00 Fair CLR 56.5 42.8 60% 30.1 1018.9
02 21:55 E 7 9.00 Fair CLR 58.1 43.3 58% 30.09 1018.7
02 20:55 E 6 9.00 Fair CLR 62.2 43.9 51% 30.08 1018.3
02 19:55 E 6 10.00 Fair CLR 66.4 44.4 45% 30.07 1018.1
02 18:55 N 8 10.00 Fair CLR 73 42.3 75 69.8 33% 30.06 1017.6
02 17:55 N 6 8.00 Fair CLR 73.9 41.4 31% 30.07 1017.9
02 16:55 NW 3 10.00 Fair CLR 73.6 41 31% 30.08 1018.1
02 15:55 E 7 10.00 Fair CLR 74.1 43.2 33% 30.1 1018.9
02 14:55 NE 5 10.00 Fair CLR 73 43 34% 30.12 1019.6
02 13:55 N 9 10.00 Fair CLR 72 42.1 34% 30.12 1019.7
02 12:55 N 6 10.00 A Few Clouds FEW100 71.6 41 72.1 48.6 33% 30.15 1020.6
02 11:55 NE 9 10.00 A Few Clouds FEW190 FEW210 69.1 40.3 35% 30.16 1021.1
02 10:55 W 6 10.00 Mostly Cloudy BKN110 BKN130 66.4 43.2 43% 30.15 1020.7
02 09:55 SW 10 10.00 Mostly Cloudy FEW070 BKN120 63.5 39.9 42% 30.16 1021.1
02 08:55 S 7 10.00 Fair CLR 58.8 41.2 52% 30.15 1020.8
02 07:55 S 8 10.00 Fair CLR 52.5 41.5 66% 30.14 1020.6
02 06:55 SE 7 10.00 Fair CLR 50 38.7 55.4 48.6 65% 48 30.12 1019.9
02 05:55 NE 6 10.00 Partly Cloudy SCT070 SCT100 52.9 39.4 60% 30.14 1020.4
02 04:55 W 8 10.00 Partly Cloudy SCT090 55 39.6 56% 30.1 1019.0
02 03:55 SW 6 10.00 Partly Cloudy SCT095 51.4 38.5 61% 30.08 1018.3
02 02:55 S 6 10.00 Fair CLR 51.1 39.4 64% 30.08 1018.3
02 01:55 SW 8 10.00 Fair CLR 49.3 40.6 72% 46 30.09 1018.8
02 00:55 S 6 10.00 Fair CLR 52.5 40.3 66 51.3 63% 30.1 1019.0
01 23:55 S 5 10.00 Fair CLR 52 40.6 65% 30.09 1018.8
01 22:55 E 7 10.00 Fair CLR 54.5 39.6 57% 30.09 1018.8
01 21:55 E 7 10.00 Fair CLR 56.8 39.4 52% 30.08 1018.4
01 20:55 E 5 10.00 Fair CLR 60.3 38.8 45% 30.07 1018.2
01 19:55 E 6 10.00 Fair CLR 61.5 38.8 43% 30.04 1017.2
01 18:55 NE 10 10.00 Fair CLR 66.2 35.4 71.1 66.2 32% 30.03 1016.7
01 17:55 NE 10 10.00 Fair CLR 67.1 37 33% 30.02 1016.3
Date Time (cdt) Wind (mph) Vis. (mi.) Weather Sky Cond. Air Dwpt Max. Min. Relative Humidity Wind Chill (°F) Heat Index (°F) altimeter (in) sea level (mb) 1 hr 3 hr 6 hr
6 hour
Temperature (ºF) Pressure Precipitation (in)